Charlotte, North Carolina
Current Conditions -  °F | °C
As of 11:52 AM on Tuesday 27 Jan 2015 (Local Time) from KCLT Reporting Station
Overcast Overcast  
Wind Chill:   Ceiling: 9500
Heat Index:   Visibility: 10mi
Dew Point: -10°   Wind: 15mph
Humidity: 32%   Direction: 350°N
Pressure: 29.87"   Gusts: 21mph
Location:  35.22°N, 80.84°W
Report Text: KCLT 271652Z 35013G18KT 10SM OVC095 06/M10 A2987 RMK AO2 SLP116 T00561100
Loading
Personal Weather Stations






























Interactive Weather Map New forecast layout! Learn more

10-Day Weather Forecast

Advertisements
Track Severe Weather on mobile